Time;durP1;ratioP1;P1;durP2;ratioP2;P2;SDS_P1;SDS_P2;PMS_P1;PMS_P2;Temp;Humidity;BMP_temperature;BMP_pressure;BME280_temperature;BME280_humidity;BME280_pressure;Samples;Min_cycle;Max_cycle;Signal;HPM_P1;HPM_P2
2021/10/25 00:02:12;;;;;;;0.70;0.50;;;5.40;99.90;;;;;;5051731;28;20264;-69
2021/10/25 00:04:37;;;;;;;0.70;0.60;;;5.50;99.90;;;;;;5051325;28;20167;-69
2021/10/25 00:07:03;;;;;;;0.70;0.50;;;5.50;99.90;;;;;;5054566;28;20520;-69
2021/10/25 00:09:29;;;;;;;0.70;0.60;;;5.50;99.90;;;;;;5054936;28;20178;-69
2021/10/25 00:11:55;;;;;;;1.20;1.10;;;5.50;99.90;;;;;;5054957;28;20183;-69
2021/10/25 00:14:22;;;;;;;0.70;0.60;;;5.50;99.90;;;;;;5054689;28;20509;-69
2021/10/25 00:16:48;;;;;;;0.70;0.50;;;5.50;99.90;;;;;;5054254;28;20190;-69
2021/10/25 00:19:14;;;;;;;0.70;0.50;;;5.40;99.90;;;;;;5054544;28;20441;-68
2021/10/25 00:21:40;;;;;;;0.70;0.60;;;5.30;99.90;;;;;;5054377;28;20414;-69
2021/10/25 00:24:06;;;;;;;0.70;0.50;;;5.30;99.90;;;;;;5054611;28;20501;-69
2021/10/25 00:26:31;;;;;;;0.90;0.70;;;5.20;99.90;;;;;;5054684;28;20198;-69
2021/10/25 00:28:57;;;;;;;1.43;1.23;;;5.20;99.90;;;;;;5054199;28;20414;-69
2021/10/25 00:31:23;;;;;;;0.70;0.60;;;5.20;99.90;;;;;;5053254;28;20179;-69
2021/10/25 00:33:49;;;;;;;0.70;0.50;;;5.20;99.90;;;;;;5053320;28;20409;-69
2021/10/25 00:36:14;;;;;;;0.70;0.50;;;5.20;99.90;;;;;;5054107;28;20199;-69
2021/10/25 00:38:40;;;;;;;0.70;0.50;;;5.20;99.90;;;;;;5053972;28;20191;-69
2021/10/25 00:41:06;;;;;;;0.70;0.50;;;5.30;99.90;;;;;;5052867;28;20171;-69
2021/10/25 00:43:32;;;;;;;0.70;0.50;;;5.30;99.90;;;;;;5053854;28;20221;-69
2021/10/25 00:45:58;;;;;;;0.70;0.50;;;5.30;99.90;;;;;;5053645;28;20461;-68
2021/10/25 00:48:23;;;;;;;0.80;0.60;;;5.30;99.90;;;;;;5053916;28;20417;-69
2021/10/25 00:50:49;;;;;;;0.70;0.50;;;5.40;99.90;;;;;;5054001;28;20452;-69
2021/10/25 00:53:15;;;;;;;0.70;0.50;;;5.40;99.90;;;;;;5053718;28;20178;-69
2021/10/25 00:55:41;;;;;;;0.70;0.40;;;5.40;99.90;;;;;;5053376;28;20191;-69
2021/10/25 00:58:07;;;;;;;0.70;0.50;;;5.20;99.90;;;;;;5053464;28;20461;-69
2021/10/25 01:00:34;;;;;;;0.70;0.60;;;5.30;99.90;;;;;;5052205;28;20206;-69
2021/10/25 01:03:00;;;;;;;0.90;0.90;;;5.20;99.90;;;;;;5053483;28;20754;-68
2021/10/25 01:05:27;;;;;;;0.70;0.50;;;5.30;99.90;;;;;;5053157;28;20475;-69
2021/10/25 01:07:54;;;;;;;0.70;0.50;;;5.20;99.90;;;;;;5053482;28;20467;-67
2021/10/25 01:10:20;;;;;;;0.70;0.50;;;5.30;99.90;;;;;;5051986;28;21003;-69
2021/10/25 01:12:47;;;;;;;0.70;0.50;;;5.30;99.90;;;;;;5068525;28;20409;-70
2021/10/25 01:15:12;;;;;;;0.70;0.50;;;5.20;99.90;;;;;;5052842;28;20424;-68
2021/10/25 01:17:38;;;;;;;0.70;0.60;;;5.20;99.90;;;;;;5053346;28;20461;-69
2021/10/25 01:20:05;;;;;;;0.80;0.70;;;5.10;99.90;;;;;;5053308;28;20179;-68
2021/10/25 01:22:31;;;;;;;0.80;0.63;;;5.20;99.90;;;;;;5052025;28;20171;-68
2021/10/25 01:24:57;;;;;;;1.47;1.37;;;5.20;99.90;;;;;;5052833;28;20497;-69
2021/10/25 01:27:22;;;;;;;0.80;0.70;;;5.10;99.90;;;;;;5053065;28;20191;-68
2021/10/25 01:29:48;;;;;;;1.13;1.03;;;5.10;99.90;;;;;;5053614;28;20171;-68
2021/10/25 01:32:14;;;;;;;0.70;0.50;;;5.10;99.90;;;;;;5052870;28;20175;-67
2021/10/25 01:34:41;;;;;;;0.83;0.60;;;5.10;99.90;;;;;;5052605;28;20179;-67
2021/10/25 01:37:08;;;;;;;1.57;0.70;;;5.10;99.90;;;;;;5051365;28;20437;-68
2021/10/25 01:39:35;;;;;;;0.80;0.60;;;5.10;99.90;;;;;;5052800;28;20472;-68
2021/10/25 01:42:02;;;;;;;0.70;0.50;;;5.10;99.90;;;;;;5053006;28;20436;-70
2021/10/25 01:44:27;;;;;;;0.80;0.73;;;5.10;99.90;;;;;;5052710;28;20517;-68
2021/10/25 01:46:53;;;;;;;0.70;0.50;;;5.10;99.90;;;;;;5052192;28;20880;-69
2021/10/25 01:49:18;;;;;;;0.80;0.60;;;5.10;99.90;;;;;;5051560;28;20250;-67
2021/10/25 01:51:44;;;;;;;2.10;2.00;;;5.00;99.90;;;;;;5051161;28;20175;-67
2021/10/25 01:54:11;;;;;;;0.80;0.70;;;4.90;99.90;;;;;;5052790;28;20170;-67
2021/10/25 01:56:37;;;;;;;0.70;0.50;;;4.80;99.90;;;;;;5052302;28;20809;-68
2021/10/25 01:59:04;;;;;;;0.70;0.50;;;4.90;99.90;;;;;;5052553;28;20457;-68
2021/10/25 02:01:30;;;;;;;0.70;0.60;;;4.90;99.90;;;;;;5058053;28;20507;-68
2021/10/25 02:03:55;;;;;;;1.13;1.03;;;4.90;99.90;;;;;;5052507;28;20452;-69
2021/10/25 02:06:21;;;;;;;0.70;0.50;;;4.90;99.90;;;;;;5050859;28;20229;-68
2021/10/25 02:08:47;;;;;;;0.70;0.63;;;5.00;99.90;;;;;;5067663;28;20715;-68
2021/10/25 02:11:14;;;;;;;0.70;0.50;;;4.90;99.90;;;;;;5052440;28;20194;-68
2021/10/25 02:13:41;;;;;;;0.70;0.50;;;4.90;99.90;;;;;;5052063;28;20510;-68
2021/10/25 02:16:08;;;;;;;0.70;0.50;;;5.00;99.90;;;;;;5051639;28;20448;-68
2021/10/25 02:18:33;;;;;;;0.80;0.60;;;5.00;99.90;;;;;;5052287;28;20457;-67
2021/10/25 02:20:59;;;;;;;5.10;1.33;;;5.00;99.90;;;;;;5052100;28;20448;-67
2021/10/25 02:23:25;;;;;;;0.70;0.50;;;5.00;99.90;;;;;;5052129;28;20171;-68
2021/10/25 02:25:51;;;;;;;0.80;0.80;;;4.90;99.90;;;;;;5051850;28;20437;-68
2021/10/25 02:28:17;;;;;;;0.70;0.50;;;4.80;99.90;;;;;;5051622;28;20431;-68
2021/10/25 02:30:43;;;;;;;0.70;0.50;;;4.80;99.90;;;;;;5051138;28;20171;-68
2021/10/25 02:33:08;;;;;;;1.17;1.07;;;4.80;99.90;;;;;;5051403;28;20425;-68
2021/10/25 02:35:34;;;;;;;2.00;0.80;;;4.70;99.90;;;;;;5051258;28;20622;-67
2021/10/25 02:37:59;;;;;;;8.90;1.17;;;4.70;99.90;;;;;;5050576;28;20190;-68
2021/10/25 02:40:27;;;;;;;0.70;0.60;;;4.70;99.90;;;;;;5051996;28;20253;-67
2021/10/25 02:42:54;;;;;;;0.90;0.70;;;4.70;99.90;;;;;;5051736;28;20202;-68
2021/10/25 02:45:21;;;;;;;3.37;1.13;;;4.80;99.90;;;;;;5051469;28;20924;-67
2021/10/25 02:47:47;;;;;;;1.53;1.43;;;4.80;99.90;;;;;;5050472;28;20508;-69
2021/10/25 02:50:13;;;;;;;1.43;0.77;;;4.90;99.90;;;;;;5051750;28;20432;-68
2021/10/25 02:52:39;;;;;;;0.97;0.87;;;5.00;99.90;;;;;;5051565;28;20421;-68
2021/10/25 02:55:05;;;;;;;0.80;0.70;;;5.00;99.90;;;;;;5066836;28;20478;-68
2021/10/25 02:57:31;;;;;;;0.70;0.50;;;4.90;99.90;;;;;;5051574;28;20226;-68
2021/10/25 02:59:57;;;;;;;1.37;1.27;;;4.90;99.90;;;;;;5051666;28;20888;-70
2021/10/25 03:02:23;;;;;;;0.70;0.50;;;4.90;99.90;;;;;;5051247;28;20163;-68
2021/10/25 03:04:48;;;;;;;0.70;0.60;;;4.90;99.90;;;;;;5051157;28;20171;-67
2021/10/25 03:07:14;;;;;;;0.70;0.50;;;4.80;99.90;;;;;;5051446;28;20205;-68
2021/10/25 03:09:40;;;;;;;0.80;0.70;;;4.90;99.90;;;;;;5051554;28;20675;-69
2021/10/25 03:12:06;;;;;;;1.53;0.80;;;4.90;99.90;;;;;;5051627;28;20640;-68
2021/10/25 03:14:32;;;;;;;0.70;0.50;;;4.90;99.90;;;;;;5051352;28;20425;-68
2021/10/25 03:16:58;;;;;;;0.70;0.60;;;5.00;99.90;;;;;;5051280;28;20443;-68
2021/10/25 03:19:23;;;;;;;1.30;1.00;;;4.90;99.90;;;;;;5049905;28;20199;-69
2021/10/25 03:21:49;;;;;;;0.70;0.50;;;4.90;99.90;;;;;;5051568;28;20247;-68
2021/10/25 03:24:16;;;;;;;0.70;0.50;;;4.90;99.90;;;;;;5051408;28;20167;-68
2021/10/25 03:26:41;;;;;;;0.70;0.53;;;4.90;99.90;;;;;;5049638;28;20226;-69
2021/10/25 03:29:07;;;;;;;0.70;0.60;;;4.90;99.90;;;;;;5051259;28;20968;-67
2021/10/25 03:31:33;;;;;;;0.70;0.60;;;5.00;99.90;;;;;;5050857;28;20644;-68
2021/10/25 03:33:59;;;;;;;2.03;1.93;;;4.90;99.90;;;;;;5051133;28;20202;-68
2021/10/25 03:36:28;;;;;;;0.70;0.50;;;4.90;99.90;;;;;;5051059;28;20436;-68
2021/10/25 03:38:54;;;;;;;0.70;0.50;;;4.90;99.90;;;;;;5051283;28;20233;-67
2021/10/25 03:41:30;;;;;;;0.70;0.50;;;5.00;99.90;;;;;;5053900;28;20939;-69
2021/10/25 03:44:10;;;;;;;0.70;0.70;;;4.90;99.90;;;;;;5055412;28;20413;-68
2021/10/25 03:46:44;;;;;;;2.97;1.17;;;4.80;99.90;;;;;;5062012;28;20433;-69
2021/10/25 03:49:16;;;;;;;0.70;0.50;;;4.90;99.90;;;;;;5050167;28;20813;-68
2021/10/25 03:51:43;;;;;;;0.70;0.50;;;4.90;99.90;;;;;;5054519;28;20478;-68
2021/10/25 03:54:33;;;;;;;0.70;0.50;;;4.90;99.90;;;;;;5054902;28;20409;-68
2021/10/25 04:13:45;;;;;;;0.70;0.50;;;4.70;99.90;;;;;;5055026;28;20436;-68
2021/10/25 04:29:00;;;;;;;0.70;0.50;;;4.70;99.90;;;;;;5054570;28;20417;-67
2021/10/25 04:31:25;;;;;;;0.70;0.53;;;4.70;99.90;;;;;;5054057;28;20425;-68
2021/10/25 04:33:51;;;;;;;0.70;0.50;;;4.70;99.90;;;;;;5054370;28;20175;-68
2021/10/25 04:36:16;;;;;;;0.70;0.50;;;4.70;99.90;;;;;;5053583;28;20790;-67
2021/10/25 04:38:42;;;;;;;1.43;0.70;;;4.60;99.90;;;;;;5053976;28;20672;-67
2021/10/25 04:41:07;;;;;;;0.70;0.50;;;4.50;99.90;;;;;;5062467;28;20178;-68
2021/10/25 04:43:33;;;;;;;0.70;0.50;;;4.50;99.90;;;;;;5054138;28;20708;-67
2021/10/25 04:45:58;;;;;;;0.70;0.50;;;4.40;99.90;;;;;;5053375;28;20201;-68
2021/10/25 04:48:24;;;;;;;0.70;0.50;;;4.30;99.90;;;;;;5052430;28;20175;-68
2021/10/25 04:50:50;;;;;;;2.70;1.00;;;4.40;99.90;;;;;;5053169;28;20253;-68
2021/10/25 04:53:15;;;;;;;0.70;0.50;;;4.50;99.90;;;;;;5052313;28;20530;-68
2021/10/25 04:55:41;;;;;;;0.70;0.60;;;4.50;99.90;;;;;;5068593;28;20829;-67
2021/10/25 04:58:06;;;;;;;0.73;0.73;;;4.40;99.90;;;;;;5052457;28;20729;-67
2021/10/25 05:00:32;;;;;;;1.90;1.10;;;4.20;99.90;;;;;;5053461;28;20171;-69
2021/10/25 05:02:59;;;;;;;0.70;0.50;;;4.20;99.90;;;;;;5053463;28;20186;-67
2021/10/25 05:05:25;;;;;;;0.70;0.50;;;4.20;99.90;;;;;;5053293;28;20655;-67
2021/10/25 05:07:51;;;;;;;1.33;1.23;;;4.30;99.90;;;;;;5053214;28;20433;-68
2021/10/25 05:10:17;;;;;;;0.70;0.50;;;4.10;99.90;;;;;;5053351;28;20428;-68
2021/10/25 05:12:42;;;;;;;0.70;0.50;;;4.20;99.90;;;;;;5053498;28;20540;-69
2021/10/25 05:15:08;;;;;;;1.13;1.03;;;4.20;99.90;;;;;;5067084;28;20206;-68
2021/10/25 05:17:34;;;;;;;1.23;0.87;;;4.20;99.90;;;;;;5053195;28;20234;-67
2021/10/25 05:19:59;;;;;;;0.70;0.50;;;4.20;99.90;;;;;;5053390;28;20966;-67
2021/10/25 05:22:25;;;;;;;1.30;0.97;;;4.10;99.90;;;;;;5053412;28;20171;-68
2021/10/25 05:24:51;;;;;;;0.70;0.50;;;4.10;99.90;;;;;;5052939;28;20171;-68
2021/10/25 05:27:20;;;;;;;0.70;0.50;;;4.00;99.90;;;;;;5053148;28;20444;-69
2021/10/25 05:29:46;;;;;;;0.70;0.60;;;4.00;99.90;;;;;;5053065;28;20163;-67
2021/10/25 05:32:11;;;;;;;1.00;0.80;;;4.00;99.90;;;;;;5053148;28;20420;-67
2021/10/25 05:34:37;;;;;;;0.70;0.50;;;4.00;99.90;;;;;;5052731;28;20166;-69
2021/10/25 05:37:03;;;;;;;1.63;1.53;;;4.10;99.90;;;;;;5052577;28;20672;-67
2021/10/25 05:39:28;;;;;;;0.70;0.50;;;4.20;99.90;;;;;;5052938;28;20597;-67
2021/10/25 05:41:54;;;;;;;1.10;0.80;;;4.10;99.90;;;;;;5052953;28;20504;-68
2021/10/25 05:44:21;;;;;;;0.70;0.60;;;4.10;99.90;;;;;;5052804;28;20175;-68
2021/10/25 05:46:46;;;;;;;0.70;0.40;;;4.10;99.90;;;;;;5044419;28;20225;-67
2021/10/25 05:49:12;;;;;;;0.80;0.70;;;4.10;99.90;;;;;;5052716;28;20445;-68
2021/10/25 05:51:37;;;;;;;0.80;0.63;;;4.10;99.90;;;;;;5051393;28;20194;-68
2021/10/25 05:54:05;;;;;;;0.70;0.57;;;4.20;99.90;;;;;;5051252;28;20549;-69
2021/10/25 05:56:31;;;;;;;1.27;1.03;;;4.20;99.90;;;;;;5052161;28;20191;-68
2021/10/25 05:58:57;;;;;;;0.70;0.40;;;4.20;99.90;;;;;;5052488;28;20457;-67
2021/10/25 06:01:29;;;;;;;0.70;0.50;;;4.20;99.90;;;;;;5052645;28;20463;-67
2021/10/25 06:04:05;;;;;;;2.00;1.90;;;4.20;99.90;;;;;;5050912;28;20171;-67
2021/10/25 06:06:32;;;;;;;0.70;0.57;;;4.30;99.90;;;;;;5051906;28;20478;-67
2021/10/25 06:08:57;;;;;;;0.87;0.87;;;4.30;99.90;;;;;;5052307;28;20498;-67
2021/10/25 06:11:23;;;;;;;2.90;1.17;;;4.30;99.90;;;;;;5051019;28;20425;-68
2021/10/25 06:13:49;;;;;;;0.70;0.50;;;4.30;99.90;;;;;;5052364;28;20183;-67
2021/10/25 06:16:17;;;;;;;0.70;0.50;;;4.40;99.90;;;;;;5052054;28;20240;-68
2021/10/25 06:18:44;;;;;;;0.70;0.50;;;4.30;99.90;;;;;;5052172;28;20202;-68
2021/10/25 06:21:10;;;;;;;0.70;0.50;;;4.30;99.90;;;;;;5052352;28;20777;-67
2021/10/25 06:23:36;;;;;;;0.80;0.73;;;4.30;99.90;;;;;;5052162;28;20421;-67
2021/10/25 06:26:03;;;;;;;0.70;0.50;;;4.20;99.90;;;;;;5051536;28;20190;-67
2021/10/25 06:28:29;;;;;;;0.70;0.50;;;4.20;99.90;;;;;;5051956;28;20428;-67
2021/10/25 06:31:08;;;;;;;0.70;0.50;;;4.20;99.90;;;;;;5050954;28;20414;-67
2021/10/25 06:33:42;;;;;;;0.77;0.77;;;4.20;99.90;;;;;;5052126;28;20509;-68
2021/10/25 06:36:08;;;;;;;0.80;0.70;;;4.30;99.90;;;;;;5051794;28;20813;-67
2021/10/25 06:38:42;;;;;;;0.70;0.40;;;4.30;99.90;;;;;;5051545;28;20535;-67
2021/10/25 06:41:08;;;;;;;0.70;0.50;;;4.30;99.90;;;;;;5052008;28;20189;-67
2021/10/25 06:43:34;;;;;;;0.70;0.60;;;4.40;99.90;;;;;;5050868;28;21064;-67
2021/10/25 06:46:00;;;;;;;0.70;0.50;;;4.50;99.90;;;;;;5050388;28;20224;-67
2021/10/25 06:48:28;;;;;;;0.70;0.50;;;4.60;99.90;;;;;;5051844;28;20417;-67
2021/10/25 06:50:53;;;;;;;2.70;0.90;;;4.60;99.90;;;;;;5050613;28;20421;-67
2021/10/25 06:53:19;;;;;;;0.70;0.50;;;4.60;99.90;;;;;;5051259;28;20772;-69
2021/10/25 06:55:45;;;;;;;1.00;0.77;;;4.60;99.90;;;;;;5050945;28;20269;-68
2021/10/25 06:58:11;;;;;;;0.70;0.70;;;4.60;99.90;;;;;;5051708;28;20203;-68
2021/10/25 07:00:38;;;;;;;0.70;0.50;;;4.60;99.90;;;;;;5051893;28;20812;-68
2021/10/25 07:03:04;;;;;;;0.70;0.50;;;4.70;99.90;;;;;;5050323;28;20425;-68
2021/10/25 07:05:32;;;;;;;0.70;0.50;;;4.70;99.90;;;;;;5049987;28;20490;-68
2021/10/25 07:07:57;;;;;;;0.70;0.60;;;4.70;99.90;;;;;;5050394;28;20429;-67
2021/10/25 07:10:23;;;;;;;1.17;0.93;;;4.90;99.90;;;;;;5051200;28;20945;-67
2021/10/25 07:12:49;;;;;;;0.70;0.50;;;4.80;99.90;;;;;;5051558;28;20214;-67
2021/10/25 07:15:16;;;;;;;1.00;0.83;;;4.90;99.90;;;;;;5054366;28;20179;-67
2021/10/25 07:18:09;;;;;;;0.70;0.50;;;4.90;99.90;;;;;;5055198;28;20194;-67
2021/10/25 07:20:44;;;;;;;0.70;0.60;;;5.10;99.90;;;;;;5055313;28;20417;-68
2021/10/25 08:11:53;;;;;;;0.83;0.70;;;9.40;99.90;;;;;;5057170;28;20671;-68
2021/10/25 08:14:19;;;;;;;2.10;1.00;;;9.20;99.90;;;;;;5054882;28;20440;-68
2021/10/25 08:16:50;;;;;;;1.53;0.80;;;9.60;99.90;;;;;;5054469;28;20898;-68
2021/10/25 08:19:26;;;;;;;7.40;1.57;;;10.30;99.90;;;;;;5054709;28;20453;-69
2021/10/25 08:21:54;;;;;;;1.20;0.80;;;11.30;99.90;;;;;;5054799;28;20424;-69
2021/10/25 08:24:20;;;;;;;1.77;1.50;;;12.00;99.90;;;;;;5054374;28;20413;-69
2021/10/25 08:26:46;;;;;;;1.17;0.90;;;12.10;99.90;;;;;;5053512;28;20417;-69
2021/10/25 08:29:15;;;;;;;1.50;1.03;;;12.40;99.90;;;;;;5065813;28;20508;-69
2021/10/25 08:31:42;;;;;;;4.30;3.33;;;12.70;99.90;;;;;;5054671;28;20436;-69
2021/10/25 08:39:48;;;;;;;0.80;0.80;;;13.60;99.90;;;;;;5054352;28;21001;-67
2021/10/25 08:42:16;;;;;;;3.43;1.33;;;14.80;99.90;;;;;;5051682;28;20967;-67
2021/10/25 08:44:44;;;;;;;1.10;1.00;;;15.90;99.90;;;;;;5051536;28;21168;-67
2021/10/25 08:47:11;;;;;;;1.73;1.63;;;16.90;99.90;;;;;;5040627;28;20981;-67
2021/10/25 08:49:37;;;;;;;1.10;1.00;;;17.00;99.90;;;;;;5054097;28;20478;-69
2021/10/25 08:52:02;;;;;;;3.60;3.40;;;17.80;99.90;;;;;;5053953;28;20409;-70
2021/10/25 08:54:30;;;;;;;1.50;1.23;;;17.90;99.90;;;;;;5053677;28;20182;-70
2021/10/25 08:56:58;;;;;;;1.60;1.10;;;18.20;99.90;;;;;;5053154;28;20201;-70
2021/10/25 08:59:24;;;;;;;1.83;1.70;;;18.10;99.90;;;;;;5053125;28;20480;-68
2021/10/25 09:01:50;;;;;;;2.03;0.87;;;18.10;99.90;;;;;;5052075;28;22051;-68
2021/10/25 09:04:18;;;;;;;1.00;0.90;;;17.40;99.90;;;;;;5053815;28;20417;-68
2021/10/25 09:06:55;;;;;;;0.80;0.77;;;16.50;99.90;;;;;;5049950;28;20195;-68
2021/10/25 09:09:22;;;;;;;2.40;1.40;;;16.30;99.90;;;;;;5053165;28;20975;-68
2021/10/25 09:12:06;;;;;;;2.13;1.27;;;16.20;99.90;;;;;;5053262;28;20500;-68
2021/10/25 09:14:33;;;;;;;1.10;0.80;;;16.80;99.90;;;;;;5053102;28;20500;-68
2021/10/25 09:17:06;;;;;;;3.17;1.70;;;17.20;99.90;;;;;;5053181;28;20531;-68
2021/10/25 09:19:37;;;;;;;1.27;1.17;;;17.00;99.90;;;;;;5053159;28;20445;-66
2021/10/25 09:22:07;;;;;;;1.40;1.17;;;16.50;99.90;;;;;;5053218;28;20409;-67
2021/10/25 09:24:32;;;;;;;3.00;2.20;;;16.30;99.90;;;;;;5052599;28;20488;-67
2021/10/25 09:27:04;;;;;;;1.07;0.90;;;16.30;99.90;;;;;;5052909;28;20528;-68
2021/10/25 09:29:33;;;;;;;9.50;1.37;;;16.30;99.90;;;;;;5051775;28;20224;-68
2021/10/25 09:32:07;;;;;;;5.50;1.47;;;16.30;99.90;;;;;;5052675;28;20413;-68
2021/10/25 09:34:39;;;;;;;1.43;1.00;;;16.90;99.90;;;;;;5046301;28;20459;-68
2021/10/25 09:37:12;;;;;;;1.07;0.97;;;16.60;99.90;;;;;;5038621;28;20791;-68
2021/10/25 09:39:57;;;;;;;1.43;1.17;;;16.70;99.90;;;;;;5052357;28;20453;-67
2021/10/25 09:50:30;;;;;;;0.90;0.80;;;17.30;99.90;;;;;;5052800;28;20452;-67
2021/10/25 09:52:57;;;;;;;1.73;1.47;;;16.60;99.90;;;;;;5051166;28;20802;-67
2021/10/25 09:55:23;;;;;;;0.87;0.70;;;16.60;99.90;;;;;;5050903;28;20417;-66
2021/10/25 09:58:04;;;;;;;1.00;0.87;;;16.90;99.90;;;;;;5052347;28;20522;-67
2021/10/25 10:00:29;;;;;;;1.60;0.93;;;18.20;99.90;;;;;;5052523;28;20200;-68
2021/10/25 10:02:55;;;;;;;1.63;1.53;;;19.00;99.90;;;;;;5051903;28;20543;-67
2021/10/25 10:05:24;;;;;;;1.63;1.53;;;20.00;99.90;;;;;;5052162;28;20193;-67
2021/10/25 10:07:50;;;;;;;1.90;1.80;;;21.50;99.90;;;;;;5051388;28;20540;-67
2021/10/25 10:10:20;;;;;;;2.60;2.23;;;22.60;98.40;;;;;;5052459;28;20421;-69
2021/10/25 10:12:48;;;;;;;4.03;1.03;;;23.50;93.70;;;;;;5052529;28;20174;-67
2021/10/25 10:15:14;;;;;;;1.93;1.10;;;24.10;86.10;;;;;;5051728;28;20421;-69
2021/10/25 10:17:50;;;;;;;1.00;0.90;;;24.30;80.70;;;;;;5052137;28;20449;-66
2021/10/25 10:20:47;;;;;;;1.90;1.20;;;23.30;80.80;;;;;;5051076;28;20301;-67
2021/10/25 10:23:18;;;;;;;2.50;0.80;;;22.40;84.50;;;;;;5040065;28;20532;-67
2021/10/25 10:25:53;;;;;;;1.23;1.13;;;22.30;89.30;;;;;;5051859;28;20516;-67
2021/10/25 10:28:31;;;;;;;1.07;0.97;;;23.30;88.40;;;;;;5051992;28;20448;-67
2021/10/25 10:30:58;;;;;;;2.40;2.20;;;22.90;84.30;;;;;;5051650;28;20961;-67
2021/10/25 10:33:30;;;;;;;0.80;0.80;;;23.60;81.80;;;;;;5051581;28;20417;-67
2021/10/25 10:35:55;;;;;;;1.97;1.13;;;23.30;79.90;;;;;;5051440;28;20801;-67
2021/10/25 10:38:30;;;;;;;1.10;0.90;;;23.40;81.40;;;;;;5051055;28;20453;-67
2021/10/25 10:40:55;;;;;;;1.10;0.97;;;23.10;79.70;;;;;;5051538;28;20167;-67
2021/10/25 10:43:24;;;;;;;1.27;0.90;;;22.80;81.20;;;;;;5052188;28;20401;-69
2021/10/25 10:46:06;;;;;;;0.80;0.70;;;22.40;83.40;;;;;;5051639;28;20198;-69
2021/10/25 10:48:35;;;;;;;1.20;1.10;;;23.20;84.00;;;;;;5051150;28;20433;-69
2021/10/25 10:51:04;;;;;;;1.23;0.90;;;24.30;83.60;;;;;;5051375;28;20830;-69
2021/10/25 10:53:49;;;;;;;1.20;0.93;;;25.90;80.00;;;;;;5051814;28;20413;-69
2021/10/25 10:56:26;;;;;;;1.50;1.30;;;26.00;72.60;;;;;;5051288;28;20563;-69
2021/10/25 11:01:32;;;;;;;1.40;0.83;;;25.80;68.30;;;;;;5051440;28;20437;-69
2021/10/25 11:03:59;;;;;;;1.50;1.20;;;25.20;71.20;;;;;;5051782;28;20421;-69
2021/10/25 11:06:32;;;;;;;1.40;1.30;;;25.00;73.30;;;;;;5051144;28;20441;-68
2021/10/25 11:08:58;;;;;;;1.30;1.07;;;24.30;74.60;;;;;;5051256;28;20429;-68
2021/10/25 11:11:24;;;;;;;1.30;0.80;;;23.80;71.90;;;;;;5050067;28;20417;-68
2021/10/25 11:13:56;;;;;;;1.37;1.00;;;23.60;75.20;;;;;;5051685;28;20175;-69
2021/10/25 11:17:09;;;;;;;1.93;1.10;;;24.30;74.60;;;;;;5050699;28;20450;-68
2021/10/25 11:19:15;;;;;;;1.00;0.90;;;25.50;74.60;;;;;;5037578;28;20540;-70
2021/10/25 11:21:53;;;;;;;1.00;0.80;;;26.70;70.60;;;;;;5051492;28;20492;-70
2021/10/25 11:24:19;;;;;;;3.53;1.73;;;27.50;68.80;;;;;;5051473;28;20163;-70
2021/10/25 11:26:49;;;;;;;1.47;0.90;;;27.40;65.50;;;;;;5051506;28;20437;-69
2021/10/25 11:29:26;;;;;;;1.30;0.83;;;27.50;65.80;;;;;;5050138;28;20422;-70
2021/10/25 11:31:57;;;;;;;1.00;0.80;;;28.20;64.60;;;;;;5046506;28;20441;-68
2021/10/25 11:34:30;;;;;;;1.60;1.50;;;27.90;63.20;;;;;;5049065;28;20457;-69
2021/10/25 11:37:10;;;;;;;1.10;1.00;;;27.00;60.80;;;;;;5044577;28;20547;-68
2021/10/25 11:39:41;;;;;;;1.57;1.47;;;26.00;64.40;;;;;;5045409;28;20963;-67
2021/10/25 11:42:31;;;;;;;1.40;1.20;;;25.40;66.00;;;;;;5050083;28;20437;-68
2021/10/25 11:45:00;;;;;;;1.00;0.80;;;24.50;67.00;;;;;;5048051;28;20534;-68
2021/10/25 11:47:28;;;;;;;1.27;1.17;;;23.80;68.60;;;;;;5066622;28;20463;-69
2021/10/25 11:50:00;;;;;;;0.93;0.83;;;23.20;74.20;;;;;;5050274;28;20516;-69
2021/10/25 11:52:26;;;;;;;1.63;1.00;;;22.60;75.00;;;;;;5048586;28;20796;-68
2021/10/25 11:54:53;;;;;;;1.40;0.80;;;21.90;76.50;;;;;;5047927;28;20437;-68
2021/10/25 11:57:21;;;;;;;1.00;0.80;;;21.30;80.90;;;;;;5050288;28;20468;-68
2021/10/25 12:00:08;;;;;;;0.93;0.80;;;21.10;85.50;;;;;;5063781;28;20464;-69
2021/10/25 12:02:37;;;;;;;0.80;0.80;;;20.80;88.60;;;;;;5051977;28;20483;-69
2021/10/25 12:05:04;;;;;;;1.10;0.67;;;20.70;90.60;;;;;;5052001;28;20437;-68
2021/10/25 12:07:31;;;;;;;1.30;1.00;;;20.60;89.00;;;;;;5052075;28;20507;-69
2021/10/25 12:10:04;;;;;;;1.20;0.90;;;20.40;89.90;;;;;;5052754;28;20444;-69
2021/10/25 12:12:31;;;;;;;1.00;0.90;;;20.30;92.90;;;;;;5053650;28;20437;-68
2021/10/25 12:15:02;;;;;;;0.80;0.57;;;20.10;97.60;;;;;;5053157;28;20417;-68
2021/10/25 12:17:34;;;;;;;1.33;0.90;;;20.10;95.30;;;;;;5063475;28;20448;-68
2021/10/25 12:20:02;;;;;;;0.80;0.70;;;20.00;98.40;;;;;;5057993;28;20434;-68
2021/10/25 12:22:28;;;;;;;1.00;0.90;;;19.80;99.00;;;;;;5051785;28;20413;-70
2021/10/25 12:24:56;;;;;;;0.80;0.63;;;19.70;99.90;;;;;;5053693;28;20594;-68
2021/10/25 12:27:37;;;;;;;0.70;0.60;;;19.60;99.90;;;;;;5050813;28;20936;-71
2021/10/25 12:30:14;;;;;;;0.80;0.60;;;19.60;99.90;;;;;;5052997;28;20440;-70
2021/10/25 12:32:59;;;;;;;0.80;0.70;;;19.70;99.90;;;;;;5050934;28;20433;-68
2021/10/25 12:35:43;;;;;;;1.43;0.77;;;19.70;99.90;;;;;;5051426;28;20512;-68
2021/10/25 12:38:14;;;;;;;1.43;1.03;;;20.60;99.90;;;;;;5052943;28;20543;-68
2021/10/25 12:40:59;;;;;;;0.77;0.50;;;21.10;99.90;;;;;;5052592;28;20430;-68
2021/10/25 12:43:25;;;;;;;1.20;0.80;;;21.20;99.90;;;;;;5050865;28;20433;-68
2021/10/25 12:46:06;;;;;;;0.87;0.70;;;21.00;98.70;;;;;;5053744;28;20453;-68
2021/10/25 12:48:50;;;;;;;0.80;0.60;;;20.60;99.90;;;;;;5051414;28;20183;-68
2021/10/25 12:51:20;;;;;;;1.27;1.17;;;20.20;99.90;;;;;;5051374;28;20447;-68
2021/10/25 12:53:48;;;;;;;0.70;0.60;;;19.70;99.90;;;;;;5049563;28;20520;-68
2021/10/25 12:56:22;;;;;;;2.30;1.70;;;19.40;99.90;;;;;;5049701;28;20468;-68
2021/10/25 12:59:01;;;;;;;1.10;0.70;;;19.10;99.90;;;;;;5052897;28;20479;-68
2021/10/25 13:01:27;;;;;;;0.70;0.60;;;18.70;99.90;;;;;;5050682;28;20779;-68
2021/10/25 13:03:57;;;;;;;8.03;3.17;;;18.50;99.90;;;;;;5049122;28;20523;-68
2021/10/25 13:06:28;;;;;;;1.90;1.70;;;18.20;99.90;;;;;;5051226;28;20260;-68
2021/10/25 13:09:01;;;;;;;0.80;0.70;;;18.00;99.90;;;;;;5038188;28;20517;-68
2021/10/25 13:11:27;;;;;;;0.80;0.67;;;17.90;99.90;;;;;;5051388;28;20516;-68
2021/10/25 13:13:57;;;;;;;0.80;0.60;;;17.80;99.90;;;;;;5053324;28;20440;-68
2021/10/25 13:16:23;;;;;;;2.37;1.13;;;17.60;99.90;;;;;;5053130;28;20464;-69
2021/10/25 13:18:49;;;;;;;0.80;0.60;;;17.50;99.90;;;;;;5053362;28;20464;-69
2021/10/25 13:21:15;;;;;;;1.40;1.10;;;17.50;99.90;;;;;;5053533;28;20179;-69
2021/10/25 13:23:41;;;;;;;0.80;0.60;;;17.50;99.90;;;;;;5036752;28;20206;-69
2021/10/25 13:26:06;;;;;;;0.70;0.50;;;17.50;99.90;;;;;;5066879;28;20448;-69
2021/10/25 13:28:33;;;;;;;0.80;0.73;;;17.40;99.90;;;;;;5047482;28;20635;-69
2021/10/25 13:30:58;;;;;;;0.70;0.50;;;17.40;99.90;;;;;;5046647;28;20182;-69
2021/10/25 13:33:30;;;;;;;0.70;0.50;;;17.50;99.90;;;;;;5053093;28;20417;-69
2021/10/25 13:35:56;;;;;;;0.80;0.70;;;17.50;99.90;;;;;;5040193;28;20204;-69
2021/10/25 13:38:21;;;;;;;0.90;0.70;;;17.40;99.90;;;;;;5049509;28;20456;-68
2021/10/25 13:40:47;;;;;;;1.07;0.93;;;17.30;99.90;;;;;;5052257;28;20559;-70
2021/10/25 13:43:12;;;;;;;0.70;0.50;;;17.10;99.90;;;;;;5054117;28;20178;-69
2021/10/25 13:45:38;;;;;;;0.80;0.60;;;17.10;99.90;;;;;;5052296;28;20234;-69
2021/10/25 13:48:04;;;;;;;1.23;1.13;;;17.00;99.90;;;;;;5054667;28;20191;-69
2021/10/25 13:50:29;;;;;;;0.70;0.50;;;17.10;99.90;;;;;;5051540;28;20175;-69
2021/10/25 13:52:55;;;;;;;0.70;0.50;;;17.00;99.90;;;;;;5052549;28;20186;-69
2021/10/25 13:55:20;;;;;;;0.70;0.50;;;16.90;99.90;;;;;;5052719;28;20181;-69
2021/10/25 13:57:48;;;;;;;0.70;0.50;;;17.00;99.90;;;;;;5050844;28;20191;-69
2021/10/25 14:00:15;;;;;;;0.90;0.67;;;17.10;99.90;;;;;;5052726;28;20548;-68
2021/10/25 14:02:42;;;;;;;0.70;0.60;;;17.10;99.90;;;;;;5051785;28;20429;-69
2021/10/25 14:05:11;;;;;;;0.77;0.70;;;17.20;99.90;;;;;;5051978;28;20418;-69
2021/10/25 14:07:37;;;;;;;1.00;0.90;;;17.10;99.90;;;;;;5052208;28;20433;-69
2021/10/25 14:10:24;;;;;;;1.70;0.80;;;17.20;99.90;;;;;;5052134;28;20417;-69
2021/10/25 14:12:50;;;;;;;0.90;0.70;;;17.10;99.90;;;;;;5052274;28;20421;-69
2021/10/25 14:15:30;;;;;;;1.37;1.27;;;17.20;99.90;;;;;;5051308;28;20428;-68
2021/10/25 14:17:58;;;;;;;0.70;0.50;;;17.20;99.90;;;;;;5051096;28;20449;-69
2021/10/25 14:20:26;;;;;;;2.13;0.80;;;17.20;99.90;;;;;;5052309;28;20413;-69
2021/10/25 14:22:55;;;;;;;0.80;0.67;;;17.10;99.90;;;;;;5051096;28;20433;-69
2021/10/25 14:25:20;;;;;;;0.80;0.80;;;17.10;99.90;;;;;;5050831;28;20440;-69
2021/10/25 14:27:46;;;;;;;0.80;0.80;;;16.90;99.90;;;;;;5051915;28;20418;-69
2021/10/25 14:30:12;;;;;;;1.67;0.73;;;16.90;99.90;;;;;;5051627;28;20733;-69
2021/10/25 14:32:38;;;;;;;0.80;0.60;;;16.80;99.90;;;;;;5051913;28;20417;-69
2021/10/25 14:35:04;;;;;;;0.80;0.60;;;16.70;99.90;;;;;;5051719;28;20570;-70